createdAt,value
2022-08-24T00:00:45.738Z,3.46
2022-08-24T00:05:45.723Z,4.49
2022-08-24T00:10:45.755Z,3.75
2022-08-24T00:15:45.712Z,3.31
2022-08-24T00:20:45.745Z,3.22
2022-08-24T00:25:45.744Z,3.67
2022-08-24T00:30:45.750Z,3.38
2022-08-24T00:35:45.736Z,3.34
2022-08-24T00:40:45.775Z,3.19
2022-08-24T00:45:45.777Z,3.35
2022-08-24T00:50:45.742Z,3.3
2022-08-24T00:55:45.782Z,3.24
2022-08-24T01:00:46.314Z,3.3
2022-08-24T01:05:45.842Z,3.42
2022-08-24T01:10:45.789Z,3.17
2022-08-24T01:15:45.788Z,3.28
2022-08-24T01:21:53.324Z,3.2
2022-08-24T01:26:53.351Z,2.96
2022-08-24T01:31:53.375Z,3.18
2022-08-24T01:36:53.359Z,3.27
2022-08-24T01:41:53.333Z,3.29
2022-08-24T01:46:53.356Z,3.25
2022-08-24T01:51:53.347Z,3.27
2022-08-24T01:56:53.365Z,3.02
2022-08-24T02:01:53.433Z,3.55
2022-08-24T02:06:53.381Z,3.35
2022-08-24T02:11:53.373Z,2.85
2022-08-24T02:16:53.361Z,3
2022-08-24T02:21:53.394Z,2.94
2022-08-24T02:26:53.349Z,3.35
2022-08-24T02:31:53.349Z,3.06
2022-08-24T02:36:53.394Z,2.96
2022-08-24T02:41:53.402Z,3.55
2022-08-24T02:46:53.358Z,3.39
2022-08-24T02:51:53.406Z,2.9
2022-08-24T02:56:53.375Z,3.06
2022-08-24T03:01:53.441Z,3.15
2022-08-24T03:06:53.372Z,4.19
2022-08-24T03:16:53.386Z,7.04
2022-08-24T03:21:53.375Z,9.52
2022-08-24T03:31:53.396Z,12.74
2022-08-24T03:36:53.450Z,13.79
2022-08-24T03:41:53.394Z,13.54
2022-08-24T03:46:53.441Z,14.25
2022-08-24T03:51:53.402Z,15.49
2022-08-24T03:56:53.478Z,15.3
2022-08-24T04:01:53.484Z,15.25
2022-08-24T04:06:53.405Z,16.93
2022-08-24T04:11:53.486Z,15.92
2022-08-24T04:16:56.457Z,17.71
2022-08-24T04:21:53.425Z,14.07
2022-08-24T04:26:53.428Z,18.04
2022-08-24T04:31:53.591Z,16.02
2022-08-24T04:36:53.460Z,16.43
2022-08-24T04:41:53.442Z,16.75
2022-08-24T04:46:53.461Z,15.35
2022-08-24T04:51:53.423Z,14.77
2022-08-24T04:56:53.471Z,13.17
2022-08-24T05:01:53.519Z,12.71
2022-08-24T05:06:54.375Z,11.47
2022-08-24T05:11:53.439Z,10.76
2022-08-24T05:16:53.893Z,10.85
2022-08-24T05:21:53.473Z,12.1
2022-08-24T05:26:53.455Z,9.76
2022-08-24T05:31:53.479Z,10.29
2022-08-24T05:36:53.457Z,6.61
2022-08-24T05:41:53.455Z,7.79
2022-08-24T05:46:53.554Z,8.02
2022-08-24T05:51:53.500Z,7.15
2022-08-24T05:56:53.481Z,7.6
2022-08-24T06:01:53.721Z,7.92
2022-08-24T06:06:53.463Z,6.71
2022-08-24T06:11:53.474Z,4.56
2022-08-24T06:16:53.598Z,4.6
2022-08-24T06:21:53.509Z,4.67
2022-08-24T06:26:53.493Z,5.77
2022-08-24T06:31:54.171Z,5.75
2022-08-24T06:36:53.789Z,5.92
2022-08-24T06:41:53.513Z,5.72
2022-08-24T06:46:53.570Z,6.33
2022-08-24T06:51:53.534Z,6.65
2022-08-24T06:56:53.501Z,5.64
2022-08-24T07:01:53.588Z,5.79
2022-08-24T07:06:53.512Z,4.33
2022-08-24T07:11:53.534Z,2.83
2022-08-24T07:16:53.538Z,3.3
2022-08-24T07:21:53.522Z,4.35
2022-08-24T07:26:53.554Z,4.48
2022-08-24T07:31:53.584Z,4.23
2022-08-24T07:36:53.531Z,4.37
2022-08-24T07:42:11.868Z,3.82
2022-08-24T07:46:53.632Z,5.09
2022-08-24T07:51:53.551Z,3.83
2022-08-24T07:56:53.582Z,4.09
2022-08-24T08:01:53.573Z,4.54
2022-08-24T08:06:53.586Z,3.65
2022-08-24T08:11:53.571Z,4.99
2022-08-24T08:21:53.603Z,4.68
2022-08-24T08:26:53.544Z,4.64
2022-08-24T08:31:53.552Z,4.4
2022-08-24T08:36:53.566Z,5.39
2022-08-24T08:41:53.614Z,6.44
2022-08-24T08:46:53.603Z,3.61
2022-08-24T08:51:53.619Z,4.9
2022-08-24T08:56:57.278Z,4.59
2022-08-24T09:01:53.636Z,4.52
2022-08-24T09:06:53.609Z,4.68
2022-08-24T09:11:53.575Z,4.35
2022-08-24T09:16:53.604Z,3.07
2022-08-24T09:21:54.258Z,3.79
2022-08-24T09:26:53.593Z,3.16
2022-08-24T09:31:53.616Z,4.03
2022-08-24T09:36:53.631Z,3.86
2022-08-24T09:41:53.626Z,3.97
2022-08-24T09:46:53.635Z,4.1
2022-08-24T09:51:53.629Z,3.39
2022-08-24T09:56:56.590Z,3.7
2022-08-24T10:01:53.649Z,2.95
2022-08-24T10:06:53.650Z,3.3
2022-08-24T10:11:53.634Z,4.18
2022-08-24T10:16:53.648Z,3.85
2022-08-24T10:21:53.618Z,3.51
2022-08-24T10:26:53.633Z,4.49
2022-08-24T10:31:53.679Z,3.12
2022-08-24T10:36:53.655Z,4.96
2022-08-24T10:41:53.682Z,3.92
2022-08-24T10:46:58.023Z,3.81
2022-08-24T10:51:53.659Z,4
2022-08-24T10:56:53.659Z,3.68
2022-08-24T11:01:53.668Z,3.93
2022-08-24T11:06:53.679Z,3.64
2022-08-24T11:11:53.643Z,4.52
2022-08-24T11:16:57.614Z,4.14
2022-08-24T11:26:54.351Z,3.91
2022-08-24T11:31:53.808Z,2.99
2022-08-24T11:36:53.660Z,3.36
2022-08-24T11:41:53.717Z,2.43
2022-08-24T11:46:53.729Z,4.62
2022-08-24T11:51:53.714Z,4.97
2022-08-24T11:56:53.706Z,5.57
2022-08-24T12:01:53.763Z,4.57
2022-08-24T12:06:55.690Z,3.88
2022-08-24T12:11:53.718Z,5.08
2022-08-24T12:16:53.689Z,4.64
2022-08-24T12:21:53.719Z,4.15
2022-08-24T12:26:53.722Z,4.9
2022-08-24T12:31:53.750Z,5.35
2022-08-24T12:36:53.698Z,4.51
2022-08-24T12:41:53.724Z,6.03
2022-08-24T12:46:53.717Z,5.95
2022-08-24T12:51:53.712Z,4.88
2022-08-24T12:56:53.709Z,4.36
2022-08-24T13:01:53.733Z,4.97
2022-08-24T13:06:57.680Z,5.08
2022-08-24T13:11:53.759Z,4.06
2022-08-24T13:16:53.723Z,4.06
2022-08-24T13:21:54.429Z,4.26
2022-08-24T13:26:53.763Z,4.79
2022-08-24T13:31:53.727Z,4.57
2022-08-24T13:36:53.757Z,5
2022-08-24T13:41:53.740Z,5.15
2022-08-24T13:46:53.801Z,4.37
2022-08-24T13:51:53.780Z,4.1
2022-08-24T13:56:53.750Z,3.31
2022-08-24T14:01:53.845Z,3.98
2022-08-24T14:06:53.754Z,4.1
2022-08-24T14:11:53.786Z,3.59
2022-08-24T14:16:53.789Z,2.93
2022-08-24T14:21:53.790Z,3.37
2022-08-24T14:26:53.754Z,3.36
2022-08-24T14:31:54.430Z,3.07
2022-08-24T14:36:55.003Z,3.81
2022-08-24T14:41:53.802Z,2.93
2022-08-24T14:46:53.842Z,2.72
2022-08-24T14:51:53.768Z,3.39
2022-08-24T14:56:53.781Z,3.19
2022-08-24T15:01:53.801Z,3.56
2022-08-24T15:06:53.815Z,3.62
2022-08-24T15:11:53.795Z,2.84
2022-08-24T15:16:54.375Z,2.47
2022-08-24T15:21:53.831Z,4.01
2022-08-24T15:26:53.786Z,3.64
2022-08-24T15:31:53.791Z,3.74
2022-08-24T15:36:53.834Z,3.19
2022-08-24T15:41:53.842Z,3.63
2022-08-24T15:46:53.840Z,3.01
2022-08-24T15:51:53.817Z,3.93
2022-08-24T15:56:53.820Z,2.73
2022-08-24T16:01:53.866Z,2.58
2022-08-24T16:06:53.856Z,2.79
2022-08-24T16:11:53.842Z,2.75
2022-08-24T16:16:54.290Z,2.53
2022-08-24T16:21:54.671Z,2.4
2022-08-24T16:26:53.798Z,2.38
2022-08-24T16:31:53.798Z,3
2022-08-24T16:36:53.812Z,3.9
2022-08-24T16:41:53.811Z,3.56
2022-08-24T16:46:53.820Z,3.09
2022-08-24T16:51:53.831Z,2.61
2022-08-24T16:56:53.856Z,2.26
2022-08-24T17:01:53.874Z,2.17
2022-08-24T17:06:53.836Z,2.15
2022-08-24T17:11:53.868Z,2.34
2022-08-24T17:16:53.871Z,3.38
2022-08-24T17:21:53.875Z,4.77
2022-08-24T17:26:53.839Z,4.1
2022-08-24T17:31:53.986Z,3.9
2022-08-24T17:36:53.862Z,5.06
2022-08-24T17:41:53.881Z,4.46
2022-08-24T17:46:53.851Z,3.88
2022-08-24T17:51:53.896Z,3.11
2022-08-24T18:01:53.856Z,3.21
2022-08-24T18:06:53.888Z,2.92
2022-08-24T18:11:53.886Z,2.73
2022-08-24T18:16:54.213Z,2.83
2022-08-24T18:21:53.869Z,3.01
2022-08-24T18:26:53.900Z,3.18
2022-08-24T18:31:53.930Z,3.11
2022-08-24T18:36:53.897Z,2.89
2022-08-24T18:41:53.916Z,2.75
2022-08-24T18:46:53.920Z,2.82
2022-08-24T18:51:53.896Z,2.8
2022-08-24T18:56:53.922Z,2.93
2022-08-24T19:01:54.093Z,3.09
2022-08-24T19:06:53.890Z,3.72
2022-08-24T19:11:53.894Z,4.2
2022-08-24T19:16:53.901Z,4.26
2022-08-24T19:21:53.968Z,4.26
2022-08-24T19:26:53.909Z,4.4
2022-08-24T19:31:53.957Z,4.46
2022-08-24T19:36:53.910Z,4.44
2022-08-24T19:41:53.917Z,4.67
2022-08-24T19:46:53.963Z,4.54
2022-08-24T19:51:53.917Z,4.48
2022-08-24T19:56:53.923Z,4.46
2022-08-24T20:01:53.977Z,4.29
2022-08-24T20:06:53.966Z,4.32
2022-08-24T20:11:53.928Z,4.28
2022-08-24T20:16:53.932Z,3.94
2022-08-24T20:21:53.930Z,3.98
2022-08-24T20:26:53.969Z,3.87
2022-08-24T20:31:53.956Z,3.75
2022-08-24T20:36:53.976Z,3.97
2022-08-24T20:41:53.947Z,3.6
2022-08-24T20:46:54.056Z,3.47
2022-08-24T20:51:53.957Z,3.27
2022-08-24T20:56:53.956Z,3.27
2022-08-24T21:01:53.976Z,3.13
2022-08-24T21:06:53.958Z,2.95
2022-08-24T21:11:53.975Z,3.03
2022-08-24T21:16:53.968Z,3.15
2022-08-24T21:21:53.970Z,3.14
2022-08-24T21:26:53.983Z,3.07
2022-08-24T21:31:54.037Z,2.85
2022-08-24T21:36:54.187Z,3.04
2022-08-24T21:41:54.007Z,3.06
2022-08-24T21:46:54.051Z,3.17
2022-08-24T21:51:54.008Z,3.14
2022-08-24T21:56:54.019Z,3.3
2022-08-24T22:01:54.038Z,3.21
2022-08-24T22:06:54.009Z,3.28
2022-08-24T22:11:53.995Z,3.07
2022-08-24T22:16:54.029Z,3.05
2022-08-24T22:21:54.028Z,3.18
2022-08-24T22:26:54.004Z,2.96
2022-08-24T22:31:54.028Z,3.13
2022-08-24T22:36:54.028Z,3.04
2022-08-24T22:41:54.009Z,2.98
2022-08-24T22:46:54.004Z,2.99
2022-08-24T22:51:54.038Z,3.13
2022-08-24T22:56:54.073Z,3.04
2022-08-24T23:01:54.056Z,3.06
2022-08-24T23:06:54.059Z,2.91
2022-08-24T23:11:54.024Z,3.11
2022-08-24T23:16:54.081Z,3.07
2022-08-24T23:21:54.059Z,3.12
2022-08-24T23:26:54.032Z,3.09
2022-08-24T23:31:54.071Z,3.68
2022-08-24T23:36:54.031Z,2.87
2022-08-24T23:41:54.038Z,3.02
2022-08-24T23:46:54.056Z,3.11
2022-08-24T23:51:54.042Z,3.24
2022-08-24T23:56:54.075Z,3.31
